Time;durP1;ratioP1;P1;durP2;ratioP2;P2;SDS_P1;SDS_P2;PMS_P1;PMS_P2;Temp;Humidity;BMP_temperature;BMP_pressure;BME280_temperature;BME280_humidity;BME280_pressure;Samples;Min_cycle;Max_cycle;Signal;HPM_P1;HPM_P2
2023/06/26 00:01:43;;;;;;;6.15;5.55;;;;;;;;;;5065924;28;20598;-25
2023/06/26 00:04:14;;;;;;;7.55;5.90;;;;;;;;;;5069344;28;20195;-27
2023/06/26 00:06:41;;;;;;;8.85;6.38;;;;;;;;;;5069189;28;20296;-26
2023/06/26 00:09:08;;;;;;;5.72;4.72;;;;;;;;;;5064618;28;20223;-27
2023/06/26 00:11:35;;;;;;;6.40;5.63;;;;;;;;;;5062529;28;20475;-27
2023/06/26 00:14:02;;;;;;;7.88;5.72;;;;;;;;;;5072537;28;20207;-28
2023/06/26 00:16:31;;;;;;;6.95;5.88;;;;;;;;;;5075020;28;20213;-23
2023/06/26 00:18:58;;;;;;;6.60;5.55;;;;;;;;;;5071110;28;20698;-24
2023/06/26 00:21:27;;;;;;;9.13;5.90;;;;;;;;;;5068352;28;20628;-25
2023/06/26 00:23:54;;;;;;;8.00;6.20;;;;;;;;;;5071038;28;20234;-23
2023/06/26 00:26:22;;;;;;;11.23;5.45;;;;;;;;;;5069614;28;20210;-27
2023/06/26 00:28:49;;;;;;;6.75;5.53;;;;;;;;;;5075078;28;20226;-27
2023/06/26 00:31:16;;;;;;;5.93;5.32;;;;;;;;;;5074975;28;20560;-24
2023/06/26 00:33:44;;;;;;;8.00;6.30;;;;;;;;;;5072018;28;20506;-24
2023/06/26 00:36:11;;;;;;;9.88;5.90;;;;;;;;;;5073716;28;20214;-26
2023/06/26 00:38:38;;;;;;;7.18;6.22;;;;;;;;;;5069754;28;20231;-25
2023/06/26 00:41:12;;;;;;;8.40;6.32;;;;;;;;;;5322910;23;20241;-28
2023/06/26 00:43:39;;;;;;;6.68;5.60;;;;;;;;;;5092887;28;20219;-31
2023/06/26 00:46:06;;;;;;;9.05;5.78;;;;;;;;;;5093089;28;20214;-28
2023/06/26 00:48:33;;;;;;;7.53;6.07;;;;;;;;;;5097716;28;20327;-32
2023/06/26 00:51:02;;;;;;;6.72;5.70;;;;;;;;;;5100889;28;20205;-31
2023/06/26 00:53:29;;;;;;;6.90;5.90;;;;;;;;;;5091186;28;20526;-28
2023/06/26 00:55:57;;;;;;;7.75;5.60;;;;;;;;;;5108719;28;20276;-30
2023/06/26 00:58:25;;;;;;;9.23;5.80;;;;;;;;;;5105176;28;20299;-30
2023/06/26 01:00:52;;;;;;;6.47;5.70;;;;;;;;;;5106976;28;20205;-28
2023/06/26 01:03:20;;;;;;;6.97;6.28;;;;;;;;;;5101936;28;20226;-30
2023/06/26 01:05:49;;;;;;;6.78;5.97;;;;;;;;;;5101286;28;20225;-27
2023/06/26 01:08:18;;;;;;;6.55;5.75;;;;;;;;;;5091454;28;20225;-31
2023/06/26 01:10:45;;;;;;;7.35;5.82;;;;;;;;;;5106626;28;20203;-30
2023/06/26 01:13:13;;;;;;;7.15;5.80;;;;;;;;;;5099461;28;20560;-31
2023/06/26 01:15:40;;;;;;;8.15;5.90;;;;;;;;;;5115211;28;20216;-30
2023/06/26 01:18:07;;;;;;;7.28;5.55;;;;;;;;;;5106204;28;20226;-28
2023/06/26 01:20:37;;;;;;;7.20;5.70;;;;;;;;;;5099915;28;20201;-29
2023/06/26 01:23:07;;;;;;;6.78;6.07;;;;;;;;;;5103448;28;20216;-30
2023/06/26 01:25:39;;;;;;;6.93;5.45;;;;;;;;;;5101915;28;20207;-30
2023/06/26 01:28:08;;;;;;;6.63;5.93;;;;;;;;;;5098814;28;20216;-28
2023/06/26 01:30:36;;;;;;;6.63;5.63;;;;;;;;;;5092460;28;20201;-30
2023/06/26 01:33:04;;;;;;;9.05;5.78;;;;;;;;;;5090327;28;20207;-30
2023/06/26 01:35:31;;;;;;;7.82;6.00;;;;;;;;;;5101178;28;20226;-30
2023/06/26 01:38:12;;;;;;;6.25;5.25;;;;;;;;;;5111174;28;20219;-29
2023/06/26 01:40:39;;;;;;;7.13;5.63;;;;;;;;;;5098896;28;20208;-28
2023/06/26 01:43:11;;;;;;;7.85;6.03;;;;;;;;;;5091783;28;20232;-33
2023/06/26 01:45:38;;;;;;;6.38;5.20;;;;;;;;;;5091997;28;20211;-32
2023/06/26 01:48:07;;;;;;;6.63;5.95;;;;;;;;;;5090496;28;20225;-28
2023/06/26 01:50:36;;;;;;;7.60;6.40;;;;;;;;;;5109399;28;20666;-33
2023/06/26 01:53:04;;;;;;;8.32;5.90;;;;;;;;;;5099348;28;20227;-31
2023/06/26 01:55:35;;;;;;;8.10;5.85;;;;;;;;;;5092762;28;20232;-30
2023/06/26 01:58:03;;;;;;;9.32;6.03;;;;;;;;;;5094137;28;20283;-30
2023/06/26 02:00:33;;;;;;;6.53;5.80;;;;;;;;;;5112123;28;20290;-27
2023/06/26 02:03:00;;;;;;;8.30;5.85;;;;;;;;;;5104608;28;20222;-28
2023/06/26 02:05:27;;;;;;;9.15;6.28;;;;;;;;;;5099461;28;20197;-30
2023/06/26 02:07:54;;;;;;;7.35;6.43;;;;;;;;;;5098585;28;20217;-28
2023/06/26 02:10:21;;;;;;;7.60;6.03;;;;;;;;;;5099466;28;20200;-32
2023/06/26 02:12:48;;;;;;;7.57;5.40;;;;;;;;;;5109495;28;20278;-28
2023/06/26 02:15:15;;;;;;;6.45;5.85;;;;;;;;;;5111790;28;20200;-31
2023/06/26 02:17:48;;;;;;;8.38;5.53;;;;;;;;;;5104125;28;20231;-30
2023/06/26 02:20:15;;;;;;;6.70;6.00;;;;;;;;;;5098849;28;20197;-27
2023/06/26 02:22:42;;;;;;;6.80;5.93;;;;;;;;;;5099251;28;20222;-29
2023/06/26 02:25:10;;;;;;;7.70;6.20;;;;;;;;;;5096060;28;20205;-29
2023/06/26 02:27:37;;;;;;;6.90;6.05;;;;;;;;;;5101699;28;20223;-31
2023/06/26 02:30:04;;;;;;;9.43;6.78;;;;;;;;;;5090867;28;20205;-30
2023/06/26 02:32:31;;;;;;;6.68;5.90;;;;;;;;;;5090594;28;20204;-28
2023/06/26 02:35:00;;;;;;;6.30;5.65;;;;;;;;;;5092913;28;20207;-29
2023/06/26 02:37:27;;;;;;;10.27;6.38;;;;;;;;;;5089541;28;20204;-28
2023/06/26 02:39:54;;;;;;;7.57;5.88;;;;;;;;;;5098769;28;20210;-28
2023/06/26 02:42:21;;;;;;;6.95;6.03;;;;;;;;;;5101881;28;20200;-30
2023/06/26 02:44:48;;;;;;;6.60;6.00;;;;;;;;;;5110583;28;20206;-28
2023/06/26 02:47:15;;;;;;;6.88;5.97;;;;;;;;;;5100460;28;20207;-27
2023/06/26 02:49:42;;;;;;;7.30;6.17;;;;;;;;;;5104888;28;20227;-31
2023/06/26 02:52:11;;;;;;;6.50;5.32;;;;;;;;;;5090272;28;20204;-28
2023/06/26 02:54:38;;;;;;;6.57;5.70;;;;;;;;;;5086387;28;20204;-29
2023/06/26 02:57:05;;;;;;;7.20;5.60;;;;;;;;;;5106226;28;20219;-31
2023/06/26 02:59:32;;;;;;;7.47;6.10;;;;;;;;;;5094352;28;20223;-28
2023/06/26 03:01:59;;;;;;;6.53;5.93;;;;;;;;;;5090156;28;20212;-30
2023/06/26 03:04:26;;;;;;;6.78;5.50;;;;;;;;;;5089139;28;20228;-30
2023/06/26 03:06:53;;;;;;;8.73;6.07;;;;;;;;;;5097218;28;20215;-28
2023/06/26 03:09:22;;;;;;;6.65;5.40;;;;;;;;;;5092935;28;20235;-29
2023/06/26 03:11:49;;;;;;;7.30;5.72;;;;;;;;;;5091117;28;20201;-31
2023/06/26 03:14:16;;;;;;;8.40;5.80;;;;;;;;;;5095951;28;20197;-30
2023/06/26 03:16:43;;;;;;;7.60;5.95;;;;;;;;;;5090208;28;20196;-29
2023/06/26 03:19:11;;;;;;;7.47;5.90;;;;;;;;;;5098528;28;20230;-28
2023/06/26 03:21:38;;;;;;;7.70;6.38;;;;;;;;;;5106675;28;20278;-28
2023/06/26 03:24:05;;;;;;;7.28;5.97;;;;;;;;;;5099387;28;20231;-30
2023/06/26 03:26:33;;;;;;;6.10;5.50;;;;;;;;;;5093833;28;20436;-28
2023/06/26 03:29:01;;;;;;;6.70;5.90;;;;;;;;;;5109473;28;20224;-30
2023/06/26 03:31:28;;;;;;;6.63;5.68;;;;;;;;;;5104067;28;20554;-30
2023/06/26 03:33:55;;;;;;;7.20;6.25;;;;;;;;;;5104243;28;20223;-31
2023/06/26 03:36:22;;;;;;;8.43;6.27;;;;;;;;;;5106124;28;20199;-28
2023/06/26 03:38:49;;;;;;;7.18;5.82;;;;;;;;;;5104727;28;20221;-27
2023/06/26 03:41:16;;;;;;;7.23;5.77;;;;;;;;;;5091423;28;20213;-29
2023/06/26 03:43:45;;;;;;;7.77;6.37;;;;;;;;;;5091911;28;20216;-30
2023/06/26 03:46:12;;;;;;;8.87;6.27;;;;;;;;;;5091852;28;20192;-31
2023/06/26 03:48:39;;;;;;;6.63;5.87;;;;;;;;;;5098223;28;20319;-27
2023/06/26 03:51:07;;;;;;;7.50;5.90;;;;;;;;;;5100628;28;20197;-29
2023/06/26 03:53:34;;;;;;;6.60;5.60;;;;;;;;;;5104146;28;20204;-29
2023/06/26 03:56:01;;;;;;;7.80;5.60;;;;;;;;;;5096360;28;20205;-31
2023/06/26 03:58:28;;;;;;;6.13;5.43;;;;;;;;;;5103256;28;20216;-30
2023/06/26 04:00:57;;;;;;;7.30;5.93;;;;;;;;;;5093050;28;20206;-33
2023/06/26 04:03:24;;;;;;;7.43;6.07;;;;;;;;;;5098624;28;20220;-29
2023/06/26 04:05:51;;;;;;;6.80;5.53;;;;;;;;;;5103434;28;20496;-28
2023/06/26 04:08:19;;;;;;;8.70;5.78;;;;;;;;;;5091869;28;20224;-31
2023/06/26 04:10:47;;;;;;;7.03;6.07;;;;;;;;;;5094636;28;20280;-28
2023/06/26 04:13:18;;;;;;;7.90;5.97;;;;;;;;;;5114184;28;20187;-29
2023/06/26 04:15:45;;;;;;;6.33;5.70;;;;;;;;;;5114297;28;20218;-28
2023/06/26 04:18:13;;;;;;;7.22;6.45;;;;;;;;;;5107589;28;20251;-28
2023/06/26 04:20:41;;;;;;;7.97;6.13;;;;;;;;;;5099677;28;20199;-29
2023/06/26 04:23:08;;;;;;;6.63;5.93;;;;;;;;;;5090492;28;20233;-30
2023/06/26 04:25:37;;;;;;;6.63;5.63;;;;;;;;;;5099050;28;20210;-28
2023/06/26 04:28:04;;;;;;;7.40;6.30;;;;;;;;;;5104419;28;20220;-27
2023/06/26 04:30:31;;;;;;;6.87;5.70;;;;;;;;;;5095183;28;20215;-27
2023/06/26 04:33:00;;;;;;;6.70;6.00;;;;;;;;;;5097170;28;20199;-28
2023/06/26 04:35:29;;;;;;;7.47;6.30;;;;;;;;;;5097867;28;20288;-31
2023/06/26 04:37:56;;;;;;;7.90;6.37;;;;;;;;;;5112294;28;20406;-27
2023/06/26 04:40:23;;;;;;;7.27;6.30;;;;;;;;;;5106536;28;20299;-29
2023/06/26 04:42:50;;;;;;;9.50;6.47;;;;;;;;;;5103309;28;20204;-29
2023/06/26 04:45:17;;;;;;;7.40;6.60;;;;;;;;;;5094122;28;20204;-29
2023/06/26 04:47:48;;;;;;;7.77;6.00;;;;;;;;;;5103056;28;20277;-27
2023/06/26 04:50:18;;;;;;;8.90;6.50;;;;;;;;;;5101867;28;20204;-33
2023/06/26 04:52:46;;;;;;;8.00;6.30;;;;;;;;;;5097606;28;20197;-31
2023/06/26 04:55:14;;;;;;;8.60;6.60;;;;;;;;;;5099663;28;20227;-30
2023/06/26 04:57:41;;;;;;;9.73;6.40;;;;;;;;;;5095909;28;20227;-30
2023/06/26 05:00:10;;;;;;;8.07;6.63;;;;;;;;;;5093500;28;20204;-30
2023/06/26 05:02:38;;;;;;;7.45;6.63;;;;;;;;;;5092416;28;20232;-32
2023/06/26 05:05:05;;;;;;;7.47;6.60;;;;;;;;;;5104871;28;20323;-31
2023/06/26 05:07:32;;;;;;;7.83;6.37;;;;;;;;;;5105378;28;20592;-29
2023/06/26 05:10:01;;;;;;;8.63;6.30;;;;;;;;;;5106411;28;20271;-32
2023/06/26 05:12:28;;;;;;;7.13;6.40;;;;;;;;;;5097575;28;20205;-31
2023/06/26 05:14:55;;;;;;;10.07;6.88;;;;;;;;;;5092750;28;20531;-31
2023/06/26 05:17:22;;;;;;;13.23;6.32;;;;;;;;;;5091972;28;20205;-28
2023/06/26 05:19:49;;;;;;;7.18;6.15;;;;;;;;;;5103682;28;20204;-29
2023/06/26 05:22:18;;;;;;;8.43;6.30;;;;;;;;;;5112584;28;20196;-29
2023/06/26 05:24:47;;;;;;;7.32;6.35;;;;;;;;;;5100694;28;20229;-29
2023/06/26 05:27:21;;;;;;;7.63;5.93;;;;;;;;;;5103456;28;20208;-31
2023/06/26 05:29:48;;;;;;;7.28;6.55;;;;;;;;;;5112512;28;20206;-27
2023/06/26 05:32:17;;;;;;;7.25;6.05;;;;;;;;;;5113000;28;20204;-32
2023/06/26 05:34:44;;;;;;;7.95;5.93;;;;;;;;;;5100582;28;20623;-28
2023/06/26 05:37:14;;;;;;;7.60;6.20;;;;;;;;;;5100215;28;20211;-31
2023/06/26 05:39:42;;;;;;;7.03;6.32;;;;;;;;;;5094207;28;20206;-32
2023/06/26 05:42:10;;;;;;;6.85;6.15;;;;;;;;;;5104701;28;20215;-29
2023/06/26 05:44:38;;;;;;;9.32;6.68;;;;;;;;;;5112782;28;20256;-29
2023/06/26 05:47:05;;;;;;;7.10;6.43;;;;;;;;;;5101430;28;20213;-31
2023/06/26 05:49:32;;;;;;;9.00;6.07;;;;;;;;;;5102053;28;20222;-28
2023/06/26 05:52:00;;;;;;;7.20;6.05;;;;;;;;;;5111941;28;20201;-31
2023/06/26 05:54:27;;;;;;;7.97;6.50;;;;;;;;;;5099281;28;20772;-30
2023/06/26 05:56:59;;;;;;;6.68;5.60;;;;;;;;;;5104452;28;20210;-31
2023/06/26 05:59:26;;;;;;;8.57;6.35;;;;;;;;;;5107130;28;20221;-30
2023/06/26 06:01:54;;;;;;;8.70;6.00;;;;;;;;;;5103317;28;20669;-28
2023/06/26 06:04:22;;;;;;;7.57;6.78;;;;;;;;;;5107010;28;20246;-29
2023/06/26 06:06:49;;;;;;;7.47;5.75;;;;;;;;;;5102036;28;20199;-28
2023/06/26 06:09:16;;;;;;;7.57;6.22;;;;;;;;;;5092914;28;20226;-28
2023/06/26 06:11:43;;;;;;;7.60;6.18;;;;;;;;;;5102734;28;20201;-31
2023/06/26 06:14:10;;;;;;;7.47;5.95;;;;;;;;;;5105376;28;20220;-27
2023/06/26 06:16:37;;;;;;;8.30;6.18;;;;;;;;;;5112035;28;20209;-30
2023/06/26 06:19:07;;;;;;;7.45;6.50;;;;;;;;;;5094353;28;20221;-30
2023/06/26 06:21:34;;;;;;;8.63;6.25;;;;;;;;;;5095745;28;20192;-30
2023/06/26 06:24:02;;;;;;;8.50;6.28;;;;;;;;;;5093503;28;20241;-29
2023/06/26 06:26:29;;;;;;;6.95;6.25;;;;;;;;;;5100057;28;20237;-30
2023/06/26 06:28:56;;;;;;;8.15;6.35;;;;;;;;;;5099963;28;20264;-27
2023/06/26 06:31:23;;;;;;;6.60;5.22;;;;;;;;;;5091625;28;20209;-29
2023/06/26 06:33:50;;;;;;;7.32;6.10;;;;;;;;;;5093945;28;20211;-29
2023/06/26 06:36:19;;;;;;;6.72;6.03;;;;;;;;;;5091079;28;20499;-28
2023/06/26 06:38:46;;;;;;;7.53;5.50;;;;;;;;;;5091099;28;20244;-29
2023/06/26 06:43:42;;;;;;;7.88;6.38;;;;;;;;;;5081691;28;20303;-33
2023/06/26 06:46:09;;;;;;;6.30;5.45;;;;;;;;;;5090533;28;20200;-29
2023/06/26 06:48:36;;;;;;;7.13;5.82;;;;;;;;;;5102596;28;20226;-30
2023/06/26 06:51:03;;;;;;;6.40;5.32;;;;;;;;;;5103131;28;20204;-33
2023/06/26 06:53:32;;;;;;;8.40;6.25;;;;;;;;;;5100798;28;20199;-34
2023/06/26 06:55:59;;;;;;;8.45;5.60;;;;;;;;;;5101298;28;20211;-34
2023/06/26 06:58:26;;;;;;;6.60;6.00;;;;;;;;;;5105262;28;20220;-31
2023/06/26 07:00:54;;;;;;;6.88;5.57;;;;;;;;;;5111019;28;20204;-32
2023/06/26 07:03:21;;;;;;;6.88;5.60;;;;;;;;;;5102094;28;20227;-31
2023/06/26 07:05:48;;;;;;;6.13;5.47;;;;;;;;;;5100770;28;20223;-33
2023/06/26 07:08:15;;;;;;;6.60;5.72;;;;;;;;;;5092874;28;20228;-32
2023/06/26 07:10:44;;;;;;;6.80;6.00;;;;;;;;;;5093844;28;20210;-33
2023/06/26 07:13:11;;;;;;;6.35;5.35;;;;;;;;;;5110999;28;20638;-32
2023/06/26 07:15:38;;;;;;;6.68;5.93;;;;;;;;;;5111624;28;20204;-31
2023/06/26 07:18:06;;;;;;;5.85;5.18;;;;;;;;;;5106311;28;20224;-30
2023/06/26 07:20:33;;;;;;;7.13;5.22;;;;;;;;;;5100200;28;20206;-32
2023/06/26 07:23:00;;;;;;;5.82;5.32;;;;;;;;;;5097960;28;20204;-32
2023/06/26 07:25:27;;;;;;;6.03;5.43;;;;;;;;;;5095318;28;20255;-29
2023/06/26 07:27:55;;;;;;;6.50;5.25;;;;;;;;;;5089374;28;20217;-28
2023/06/26 07:30:23;;;;;;;5.30;4.80;;;;;;;;;;5090428;28;20204;-32
2023/06/26 07:32:51;;;;;;;6.07;4.93;;;;;;;;;;5090797;28;20204;-33
2023/06/26 07:35:18;;;;;;;5.63;5.07;;;;;;;;;;5109501;28;20204;-33
2023/06/26 07:37:45;;;;;;;6.25;5.70;;;;;;;;;;5110658;28;20223;-31
2023/06/26 07:40:13;;;;;;;5.10;4.63;;;;;;;;;;5095451;28;20204;-30
2023/06/26 07:42:40;;;;;;;5.38;4.88;;;;;;;;;;5098371;28;20211;-30
2023/06/26 07:45:12;;;;;;;11.25;4.90;;;;;;;;;;5090787;28;20553;-31
2023/06/26 07:47:39;;;;;;;6.80;4.93;;;;;;;;;;5097359;28;20223;-32
2023/06/26 07:50:06;;;;;;;6.05;4.65;;;;;;;;;;5096510;28;20201;-32
2023/06/26 07:52:33;;;;;;;6.65;4.55;;;;;;;;;;5108284;28;20435;-33
2023/06/26 07:55:00;;;;;;;5.18;4.72;;;;;;;;;;5099865;28;20204;-31
2023/06/26 07:57:27;;;;;;;6.32;5.68;;;;;;;;;;5088452;28;20205;-33
2023/06/26 07:59:55;;;;;;;6.30;4.90;;;;;;;;;;5108507;28;20274;-29
2023/06/26 08:02:24;;;;;;;5.45;4.90;;;;;;;;;;5098768;28;20231;-30
2023/06/26 08:04:51;;;;;;;8.85;5.55;;;;;;;;;;5101028;28;20223;-33
2023/06/26 08:07:18;;;;;;;6.53;4.80;;;;;;;;;;5109532;28;20204;-32
2023/06/26 08:09:45;;;;;;;7.05;5.15;;;;;;;;;;5092836;28;20236;-29
2023/06/26 08:12:13;;;;;;;5.57;5.00;;;;;;;;;;5096827;28;20206;-31
2023/06/26 08:14:40;;;;;;;5.63;4.93;;;;;;;;;;5109741;28;20203;-32
2023/06/26 08:17:07;;;;;;;4.82;4.43;;;;;;;;;;5102479;28;20215;-34
2023/06/26 08:19:35;;;;;;;6.75;4.70;;;;;;;;;;5096261;28;20224;-33
2023/06/26 08:22:03;;;;;;;5.55;5.05;;;;;;;;;;5101373;28;20208;-31
2023/06/26 08:24:30;;;;;;;7.05;5.40;;;;;;;;;;5098974;28;20224;-32
2023/06/26 08:26:57;;;;;;;6.10;5.10;;;;;;;;;;5099024;28;20215;-33
2023/06/26 08:29:24;;;;;;;5.50;5.00;;;;;;;;;;5094380;28;20224;-32
2023/06/26 08:31:52;;;;;;;5.60;4.20;;;;;;;;;;5087601;28;20216;-33
2023/06/26 08:34:19;;;;;;;9.75;4.82;;;;;;;;;;5088843;28;20200;-32
2023/06/26 08:36:47;;;;;;;5.35;4.85;;;;;;;;;;5101757;28;20208;-33
2023/06/26 08:39:14;;;;;;;6.45;4.38;;;;;;;;;;5105105;28;20212;-30
2023/06/26 08:41:42;;;;;;;5.78;5.15;;;;;;;;;;5101467;28;20212;-30
2023/06/26 08:44:09;;;;;;;5.95;5.43;;;;;;;;;;5114346;28;20227;-33
2023/06/26 08:46:36;;;;;;;6.47;5.00;;;;;;;;;;5115649;28;20203;-34
2023/06/26 08:49:06;;;;;;;5.75;5.15;;;;;;;;;;5104560;28;20220;-33
2023/06/26 08:51:35;;;;;;;9.10;5.00;;;;;;;;;;5109844;28;20211;-31
2023/06/26 08:54:06;;;;;;;6.03;4.93;;;;;;;;;;5106221;28;20206;-31
2023/06/26 08:56:34;;;;;;;7.40;5.10;;;;;;;;;;5105823;28;20204;-31
2023/06/26 08:59:01;;;;;;;8.40;4.82;;;;;;;;;;5103792;28;20283;-32
2023/06/26 09:01:29;;;;;;;5.07;4.63;;;;;;;;;;5104913;28;20192;-33
2023/06/26 09:03:56;;;;;;;5.55;4.97;;;;;;;;;;5095865;28;20211;-33
2023/06/26 09:06:23;;;;;;;7.90;4.82;;;;;;;;;;5097037;28;20216;-32
2023/06/26 09:08:50;;;;;;;5.78;4.78;;;;;;;;;;5092796;28;20232;-33
2023/06/26 09:11:19;;;;;;;4.53;4.13;;;;;;;;;;5101000;28;20239;-29
2023/06/26 09:13:47;;;;;;;5.03;4.53;;;;;;;;;;5101905;28;20219;-30
2023/06/26 09:16:14;;;;;;;5.13;4.63;;;;;;;;;;5107083;28;20356;-30
2023/06/26 09:18:42;;;;;;;4.90;4.40;;;;;;;;;;5103393;28;20226;-33
2023/06/26 09:21:10;;;;;;;6.43;5.00;;;;;;;;;;5098122;28;20218;-32
2023/06/26 09:23:37;;;;;;;4.60;4.20;;;;;;;;;;5103210;28;20208;-34
2023/06/26 09:26:04;;;;;;;5.50;4.75;;;;;;;;;;5105210;28;20212;-33
2023/06/26 09:28:33;;;;;;;5.22;4.80;;;;;;;;;;5099792;28;20724;-33
2023/06/26 09:31:04;;;;;;;5.15;4.65;;;;;;;;;;5104032;28;20192;-32
2023/06/26 09:33:35;;;;;;;5.65;4.63;;;;;;;;;;5103186;28;20215;-32
2023/06/26 09:36:02;;;;;;;5.18;4.68;;;;;;;;;;5098787;28;20270;-29
2023/06/26 09:38:29;;;;;;;6.07;4.97;;;;;;;;;;5098290;28;20228;-33
2023/06/26 09:40:57;;;;;;;4.60;4.15;;;;;;;;;;5104822;28;20226;-33
2023/06/26 09:43:25;;;;;;;6.63;4.72;;;;;;;;;;5107713;28;20814;-30
2023/06/26 09:45:54;;;;;;;5.47;4.22;;;;;;;;;;5097151;28;20220;-30
2023/06/26 09:48:22;;;;;;;6.20;4.57;;;;;;;;;;5095261;28;20219;-33
2023/06/26 09:50:49;;;;;;;7.80;4.68;;;;;;;;;;5101739;28;20200;-32
2023/06/26 09:53:18;;;;;;;7.68;4.63;;;;;;;;;;5092211;28;20531;-31
2023/06/26 09:55:46;;;;;;;4.85;4.43;;;;;;;;;;5098925;28;20267;-33
2023/06/26 09:58:15;;;;;;;7.68;4.55;;;;;;;;;;5098804;28;20274;-32
2023/06/26 10:00:42;;;;;;;7.10;4.53;;;;;;;;;;5103438;28;20228;-31
2023/06/26 10:03:11;;;;;;;7.38;4.70;;;;;;;;;;5100544;28;20254;-31
2023/06/26 10:05:39;;;;;;;5.68;4.75;;;;;;;;;;5099886;28;20293;-32
2023/06/26 10:08:07;;;;;;;4.93;4.45;;;;;;;;;;5097259;28;20218;-33
2023/06/26 10:10:35;;;;;;;7.90;4.60;;;;;;;;;;5093465;28;20203;-29
2023/06/26 10:13:05;;;;;;;6.55;4.68;;;;;;;;;;5096605;28;20188;-31
2023/06/26 10:15:33;;;;;;;4.70;4.22;;;;;;;;;;5104664;28;20719;-30
2023/06/26 10:18:00;;;;;;;6.28;4.43;;;;;;;;;;5103110;28;20224;-35
2023/06/26 10:20:28;;;;;;;4.93;4.35;;;;;;;;;;5103182;28;20200;-32
2023/06/26 10:22:57;;;;;;;6.57;4.50;;;;;;;;;;5095852;28;20212;-31
2023/06/26 10:25:24;;;;;;;5.22;4.55;;;;;;;;;;5097090;28;20227;-33
2023/06/26 10:27:54;;;;;;;4.82;4.22;;;;;;;;;;5097303;28;20216;-32
2023/06/26 10:30:24;;;;;;;5.28;4.47;;;;;;;;;;5096404;28;20211;-35
2023/06/26 10:32:51;;;;;;;5.85;4.85;;;;;;;;;;5098301;28;20220;-31
2023/06/26 10:35:18;;;;;;;4.75;4.28;;;;;;;;;;5097652;28;20208;-28
2023/06/26 10:37:48;;;;;;;7.63;5.05;;;;;;;;;;5097684;28;20232;-33
2023/06/26 10:40:15;;;;;;;4.68;4.28;;;;;;;;;;5099680;28;20831;-32
2023/06/26 10:42:42;;;;;;;4.82;4.35;;;;;;;;;;5109622;28;20290;-34
2023/06/26 10:45:15;;;;;;;4.65;4.15;;;;;;;;;;5101655;28;20221;-32
2023/06/26 10:47:42;;;;;;;6.28;4.20;;;;;;;;;;5090729;28;20221;-29
2023/06/26 10:50:20;;;;;;;8.68;4.40;;;;;;;;;;5104918;28;20200;-32
2023/06/26 10:53:08;;;;;;;5.97;3.88;;;;;;;;;;5099113;28;20207;-30
2023/06/26 10:55:35;;;;;;;5.07;4.57;;;;;;;;;;5100024;28;20200;-31
2023/06/26 10:58:02;;;;;;;5.28;4.05;;;;;;;;;;5091626;28;20223;-32
2023/06/26 11:00:30;;;;;;;4.72;4.30;;;;;;;;;;5100721;28;20258;-30
2023/06/26 11:02:57;;;;;;;5.90;4.13;;;;;;;;;;5089037;28;20600;-33
2023/06/26 11:05:27;;;;;;;6.05;4.47;;;;;;;;;;5094453;28;20216;-36
2023/06/26 11:08:09;;;;;;;7.10;4.13;;;;;;;;;;5091853;28;20224;-34
2023/06/26 11:10:53;;;;;;;5.07;4.20;;;;;;;;;;5093206;28;20206;-33
2023/06/26 11:13:20;;;;;;;4.50;4.10;;;;;;;;;;5092889;28;20223;-31
2023/06/26 11:15:48;;;;;;;4.80;4.35;;;;;;;;;;5095390;28;20199;-30
2023/06/26 11:18:15;;;;;;;5.03;4.28;;;;;;;;;;5085163;28;20220;-29
2023/06/26 11:20:42;;;;;;;5.70;4.35;;;;;;;;;;5091105;28;20226;-32
2023/06/26 11:23:11;;;;;;;12.57;5.57;;;;;;;;;;5093471;28;20195;-31
2023/06/26 11:25:38;;;;;;;8.07;4.90;;;;;;;;;;5096955;28;20272;-30
2023/06/26 11:28:06;;;;;;;5.97;5.00;;;;;;;;;;5091267;28;20211;-34
2023/06/26 11:30:33;;;;;;;8.60;5.15;;;;;;;;;;5107510;28;20200;-32
2023/06/26 11:33:07;;;;;;;8.93;4.72;;;;;;;;;;5095200;28;20239;-31
2023/06/26 11:35:34;;;;;;;5.75;5.10;;;;;;;;;;5090708;28;20199;-32
2023/06/26 11:38:04;;;;;;;6.63;5.00;;;;;;;;;;5093646;28;20251;-32
2023/06/26 11:40:34;;;;;;;8.18;4.95;;;;;;;;;;5097107;28;20250;-32
2023/06/26 11:43:01;;;;;;;7.75;5.15;;;;;;;;;;5104726;28;20216;-30
2023/06/26 11:45:30;;;;;;;5.13;4.57;;;;;;;;;;5098273;28;20220;-30
2023/06/26 11:47:57;;;;;;;7.82;5.55;;;;;;;;;;5091517;28;20239;-33
2023/06/26 11:50:25;;;;;;;9.88;4.95;;;;;;;;;;5096854;28;20211;-33
2023/06/26 11:52:55;;;;;;;6.65;4.88;;;;;;;;;;5098023;28;20204;-32
2023/06/26 11:55:23;;;;;;;7.18;5.28;;;;;;;;;;5095258;28;20197;-31
2023/06/26 11:57:51;;;;;;;5.55;4.90;;;;;;;;;;5088675;28;20224;-32
2023/06/26 12:00:19;;;;;;;4.95;4.50;;;;;;;;;;5090022;28;20208;-33
2023/06/26 12:02:46;;;;;;;6.10;5.40;;;;;;;;;;5090513;28;20212;-31
2023/06/26 12:05:14;;;;;;;7.15;5.45;;;;;;;;;;5094204;28;20254;-33
2023/06/26 12:07:42;;;;;;;5.70;5.20;;;;;;;;;;5097583;28;20219;-30
2023/06/26 12:10:11;;;;;;;9.82;5.10;;;;;;;;;;5099304;28;20208;-32
2023/06/26 12:12:38;;;;;;;7.00;4.72;;;;;;;;;;5104435;28;20200;-30
2023/06/26 12:15:08;;;;;;;5.25;4.60;;;;;;;;;;5096919;28;20210;-32
2023/06/26 12:17:35;;;;;;;6.55;5.10;;;;;;;;;;5096640;28;20247;-34
2023/06/26 12:20:05;;;;;;;6.32;4.93;;;;;;;;;;5102140;28;20207;-32
2023/06/26 12:22:35;;;;;;;7.50;4.72;;;;;;;;;;5109665;28;20719;-30
2023/06/26 12:25:03;;;;;;;5.28;4.78;;;;;;;;;;5096514;28;20193;-33
2023/06/26 12:27:30;;;;;;;5.78;5.03;;;;;;;;;;5092461;28;20227;-33
2023/06/26 12:29:57;;;;;;;7.35;4.95;;;;;;;;;;5093483;28;20231;-33
2023/06/26 12:32:26;;;;;;;6.28;5.68;;;;;;;;;;5095303;28;20204;-32
2023/06/26 12:34:54;;;;;;;6.47;5.88;;;;;;;;;;5107208;28;20203;-30
2023/06/26 12:37:21;;;;;;;6.25;4.95;;;;;;;;;;5106977;28;20194;-32
2023/06/26 12:39:49;;;;;;;5.50;4.95;;;;;;;;;;5101369;28;20207;-30
2023/06/26 12:42:16;;;;;;;9.82;5.05;;;;;;;;;;5109130;28;20599;-31
2023/06/26 12:44:43;;;;;;;6.80;4.85;;;;;;;;;;5113659;28;20199;-31
2023/06/26 12:47:13;;;;;;;7.68;4.95;;;;;;;;;;5109676;28;20226;-33
2023/06/26 12:49:42;;;;;;;5.57;5.07;;;;;;;;;;5106352;28;20265;-32
2023/06/26 12:52:09;;;;;;;5.10;4.70;;;;;;;;;;5102946;28;20192;-32
2023/06/26 12:54:37;;;;;;;5.85;5.10;;;;;;;;;;5102334;28;20207;-32
2023/06/26 12:57:04;;;;;;;11.30;4.93;;;;;;;;;;5102328;28;20207;-32
2023/06/26 12:59:32;;;;;;;6.68;5.50;;;;;;;;;;5113437;28;20219;-33
2023/06/26 13:01:59;;;;;;;8.70;5.43;;;;;;;;;;5113094;28;20203;-34
2023/06/26 13:04:26;;;;;;;6.82;4.95;;;;;;;;;;5101200;28;20212;-29
2023/06/26 13:06:55;;;;;;;5.32;4.82;;;;;;;;;;5100009;28;20592;-32
2023/06/26 13:09:22;;;;;;;10.48;5.57;;;;;;;;;;5099222;28;20215;-29
2023/06/26 13:11:49;;;;;;;6.03;5.10;;;;;;;;;;5103385;28;20204;-32
2023/06/26 13:14:16;;;;;;;5.82;5.32;;;;;;;;;;5100065;28;20197;-32
2023/06/26 13:16:43;;;;;;;5.75;5.25;;;;;;;;;;5093780;28;20209;-32
2023/06/26 13:19:11;;;;;;;8.77;5.63;;;;;;;;;;5104855;28;20220;-32
2023/06/26 13:21:38;;;;;;;7.32;4.95;;;;;;;;;;5095280;28;20291;-33
2023/06/26 13:24:07;;;;;;;5.82;4.80;;;;;;;;;;5096448;28;20196;-30
2023/06/26 13:26:34;;;;;;;5.93;4.47;;;;;;;;;;5105956;28;20232;-32
2023/06/26 13:29:01;;;;;;;7.93;5.72;;;;;;;;;;5102201;28;20303;-33
2023/06/26 13:31:28;;;;;;;8.07;5.32;;;;;;;;;;5095927;28;20207;-36
2023/06/26 13:33:55;;;;;;;6.68;5.47;;;;;;;;;;5099924;28;20206;-33
2023/06/26 13:36:23;;;;;;;6.68;4.88;;;;;;;;;;5098664;28;20646;-31
2023/06/26 13:38:55;;;;;;;6.53;5.45;;;;;;;;;;5096604;28;20224;-30
2023/06/26 13:41:23;;;;;;;8.73;4.88;;;;;;;;;;5101120;28;20196;-30
2023/06/26 13:43:50;;;;;;;6.75;4.85;;;;;;;;;;5102155;28;20209;-33
2023/06/26 13:46:18;;;;;;;6.30;5.20;;;;;;;;;;5101159;28;20223;-33
2023/06/26 13:48:45;;;;;;;6.43;5.25;;;;;;;;;;5096234;28;20231;-32
2023/06/26 13:51:12;;;;;;;8.75;5.45;;;;;;;;;;5098704;28;20204;-31
2023/06/26 13:53:39;;;;;;;5.57;4.70;;;;;;;;;;5100828;28;20278;-33
2023/06/26 13:56:07;;;;;;;6.60;5.03;;;;;;;;;;5097633;28;20206;-30
2023/06/26 13:58:38;;;;;;;6.22;4.47;;;;;;;;;;5095068;28;20212;-34
2023/06/26 14:01:05;;;;;;;7.70;4.75;;;;;;;;;;5099439;28;20235;-30
2023/06/26 14:03:32;;;;;;;7.43;4.82;;;;;;;;;;5096097;28;20197;-33
2023/06/26 14:06:00;;;;;;;6.75;4.97;;;;;;;;;;5095424;28;20295;-29
2023/06/26 14:08:27;;;;;;;6.30;4.25;;;;;;;;;;5094660;28;20531;-35
2023/06/26 14:10:54;;;;;;;8.18;4.60;;;;;;;;;;5096824;28;20204;-33
2023/06/26 14:13:21;;;;;;;8.00;5.35;;;;;;;;;;5097790;28;20254;-32
2023/06/26 14:15:52;;;;;;;5.25;4.68;;;;;;;;;;5098555;28;20519;-31
2023/06/26 14:18:20;;;;;;;5.10;4.60;;;;;;;;;;5103601;28;20223;-35
2023/06/26 14:20:48;;;;;;;12.52;4.40;;;;;;;;;;5186841;22;20301;-25
2023/06/26 14:23:16;;;;;;;4.53;4.13;;;;;;;;;;5090766;28;20230;-26
2023/06/26 14:25:43;;;;;;;6.07;4.88;;;;;;;;;;5081414;28;20204;-27
2023/06/26 14:28:10;;;;;;;6.53;4.47;;;;;;;;;;5095978;28;20221;-23
2023/06/26 14:30:37;;;;;;;6.55;4.63;;;;;;;;;;5093143;28;20688;-27
2023/06/26 14:33:06;;;;;;;9.43;3.95;;;;;;;;;;5091992;28;20205;-23
2023/06/26 14:35:33;;;;;;;7.53;5.00;;;;;;;;;;5101590;28;20200;-26
2023/06/26 14:38:00;;;;;;;5.55;3.60;;;;;;;;;;5111876;28;20352;-24
2023/06/26 14:40:29;;;;;;;6.65;3.60;;;;;;;;;;5090664;28;20204;-25
2023/06/26 14:42:56;;;;;;;6.22;4.45;;;;;;;;;;5103272;28;20214;-26
2023/06/26 14:45:24;;;;;;;6.78;4.30;;;;;;;;;;5112753;28;20207;-24
2023/06/26 14:47:51;;;;;;;5.70;4.57;;;;;;;;;;5109873;28;20259;-24
2023/06/26 14:50:19;;;;;;;6.93;5.03;;;;;;;;;;5106195;28;20235;-24